Time;durP1;ratioP1;P1;durP2;ratioP2;P2;SDS_P1;SDS_P2;PMS_P1;PMS_P2;Temp;Humidity;BMP_temperature;BMP_pressure;BME280_temperature;BME280_humidity;BME280_pressure;Samples;Min_cycle;Max_cycle;Signal;HPM_P1;HPM_P2
2022/02/05 00:00:35;;;;;;;23.33;12.48;;;;;;;3.76;73.86;97785.59;5103288;28;20028;-66
2022/02/05 00:20:03;;;;;;;23.60;11.75;;;;;;;3.80;73.75;97772.28;5102271;28;20807;-66
2022/02/05 00:42:57;;;;;;;17.98;9.45;;;;;;;3.95;73.80;97776.91;5107088;28;20048;-66
2022/02/05 00:45:22;;;;;;;14.02;8.10;;;;;;;4.03;73.71;97770.97;5106652;28;20024;-66
2022/02/05 00:47:49;;;;;;;14.13;8.55;;;;;;;4.06;73.41;97780.47;5107457;28;20923;-66
2022/02/05 00:50:20;;;;;;;13.40;8.07;;;;;;;4.09;73.69;97774.47;5107158;28;20563;-66
2022/02/05 00:52:57;;;;;;;14.25;8.10;;;;;;;4.16;73.13;97772.31;5107667;28;20035;-66
2022/02/05 00:55:26;;;;;;;18.00;8.45;;;;;;;4.20;73.07;97770.69;5107018;27;20049;-66
2022/02/05 00:57:51;;;;;;;17.13;8.93;;;;;;;4.25;72.99;97768.00;5106826;28;20112;-66
2022/02/05 01:00:19;;;;;;;15.45;8.65;;;;;;;4.25;72.65;97768.00;5107958;27;20028;-67
2022/02/05 01:02:45;;;;;;;16.17;8.68;;;;;;;4.27;72.25;97776.69;5107043;28;20015;-66
2022/02/05 01:05:11;;;;;;;16.83;9.45;;;;;;;4.29;72.34;97781.81;5106339;28;20026;-66
2022/02/05 01:07:38;;;;;;;16.25;9.10;;;;;;;4.27;72.20;97770.44;5106703;28;20035;-66
2022/02/05 01:10:04;;;;;;;16.30;9.35;;;;;;;4.25;71.81;97781.56;5107267;28;20016;-66
2022/02/05 01:12:32;;;;;;;14.77;8.15;;;;;;;4.24;72.71;97784.56;5106378;28;20449;-66
2022/02/05 01:15:00;;;;;;;15.25;9.07;;;;;;;4.23;72.76;97780.22;5104811;28;20123;-66
2022/02/05 01:18:03;;;;;;;14.45;8.75;;;;;;;4.22;72.20;97767.72;5107094;28;20133;-66
2022/02/05 01:20:43;;;;;;;15.18;8.32;;;;;;;4.18;72.18;97770.16;5103632;28;20023;-67
2022/02/05 01:23:06;;;;;;;14.30;8.80;;;;;;;4.13;72.00;97781.00;5106380;28;20070;-66
2022/02/05 01:25:37;;;;;;;18.23;9.55;;;;;;;4.10;72.13;97787.81;5104844;28;20031;-66
2022/02/05 01:28:17;;;;;;;14.82;9.73;;;;;;;4.08;72.29;97783.72;5105529;28;20038;-66
2022/02/05 01:30:47;;;;;;;18.08;10.20;;;;;;;4.03;72.32;97787.25;5106135;28;20579;-66
2022/02/05 01:57:01;;;;;;;16.40;8.15;;;;;;;3.85;72.75;97783.16;5105302;28;20112;-66
2022/02/05 02:05:14;;;;;;;18.85;10.57;;;;;;;3.92;72.28;97793.75;5105465;28;20471;-66
2022/02/05 02:15:35;;;;;;;17.40;10.30;;;;;;;3.90;72.92;97795.91;5104280;28;20156;-66
2022/02/05 02:18:30;;;;;;;15.18;9.73;;;;;;;3.91;72.81;97789.41;5105406;28;20028;-66
2022/02/05 02:26:20;;;;;;;12.57;8.38;;;;;;;3.96;72.51;97784.81;5104321;28;20528;-66
2022/02/05 02:31:20;;;;;;;14.40;8.98;;;;;;;3.98;72.77;97788.06;5105366;28;20044;-66
2022/02/05 02:33:50;;;;;;;13.45;8.15;;;;;;;4.01;72.46;97782.09;5105098;28;20035;-66
2022/02/05 02:36:28;;;;;;;13.00;8.48;;;;;;;4.05;72.65;97789.72;5103218;28;20411;-66
2022/02/05 02:38:58;;;;;;;14.35;8.38;;;;;;;4.08;72.33;97789.13;5105569;28;20076;-66
2022/02/05 02:41:29;;;;;;;10.57;6.80;;;;;;;4.09;72.82;97794.31;5105510;28;21682;-66
2022/02/05 02:43:55;;;;;;;12.63;7.50;;;;;;;4.13;72.39;97789.97;5103973;28;20051;-66
2022/02/05 02:46:21;;;;;;;13.10;7.57;;;;;;;4.17;72.45;97787.53;5104783;28;20032;-67
2022/02/05 02:48:48;;;;;;;13.02;8.43;;;;;;;4.20;72.55;97788.91;5105512;28;20028;-66
2022/02/05 02:59:36;;;;;;;14.57;8.10;;;;;;;4.25;72.83;97787.00;5105010;28;20070;-66
2022/02/05 03:02:10;;;;;;;14.80;8.52;;;;;;;4.27;72.30;97803.03;5105404;28;20472;-66
2022/02/05 03:04:36;;;;;;;16.67;9.68;;;;;;;4.29;72.57;97785.38;5103865;28;20039;-66
2022/02/05 03:07:03;;;;;;;11.23;7.00;;;;;;;4.30;72.88;97788.88;5104648;28;20027;-66
2022/02/05 03:09:28;;;;;;;12.13;7.60;;;;;;;4.32;72.28;97786.72;5086064;28;20384;-66
2022/02/05 03:11:53;;;;;;;13.10;7.35;;;;;;;4.32;72.31;97789.41;5104187;28;20024;-66
2022/02/05 03:14:19;;;;;;;10.98;7.40;;;;;;;4.36;72.56;97787.00;5105105;28;20510;-66
2022/02/05 03:16:50;;;;;;;10.65;6.50;;;;;;;4.37;71.94;97796.78;5103999;28;20038;-66
2022/02/05 03:19:16;;;;;;;11.90;7.15;;;;;;;4.37;72.49;97800.28;5105321;28;20101;-66
2022/02/05 03:21:42;;;;;;;13.20;6.88;;;;;;;4.37;72.50;97811.16;5105891;28;20164;-66
2022/02/05 03:24:09;;;;;;;10.57;6.47;;;;;;;4.38;72.86;97812.78;5105405;28;20060;-66
2022/02/05 03:26:35;;;;;;;11.02;6.85;;;;;;;4.37;72.69;97816.56;5103284;28;20518;-66
2022/02/05 03:29:05;;;;;;;13.43;7.55;;;;;;;4.38;72.85;97834.50;5105565;28;20079;-66
2022/02/05 03:31:30;;;;;;;11.57;7.30;;;;;;;4.41;72.88;97828.53;5102592;28;20035;-66
2022/02/05 03:33:55;;;;;;;13.65;7.15;;;;;;;4.41;72.53;97827.72;5105394;28;20039;-65
2022/02/05 03:36:21;;;;;;;10.40;6.97;;;;;;;4.43;72.36;97834.50;5104136;28;20475;-65
2022/02/05 03:38:46;;;;;;;11.30;7.47;;;;;;;4.47;72.51;97842.94;5104940;28;20043;-67
2022/02/05 03:41:12;;;;;;;10.23;6.97;;;;;;;4.49;72.83;97846.16;5105014;28;20462;-66
2022/02/05 03:43:37;;;;;;;9.30;5.78;;;;;;;4.49;72.53;97845.38;5105030;28;20123;-66
2022/02/05 03:46:02;;;;;;;14.18;7.38;;;;;;;4.49;72.39;97842.66;5104254;28;20026;-66
2022/02/05 03:48:28;;;;;;;11.23;6.93;;;;;;;4.47;72.70;97843.72;5104787;28;20085;-66
2022/02/05 03:50:53;;;;;;;12.68;7.03;;;;;;;4.49;72.16;97851.59;5105082;28;20111;-66
2022/02/05 03:53:19;;;;;;;12.15;7.07;;;;;;;4.50;72.73;97863.28;5103774;28;20090;-66
2022/02/05 03:55:47;;;;;;;8.27;5.90;;;;;;;4.48;72.67;97869.00;5102614;28;20403;-67
2022/02/05 03:58:13;;;;;;;8.55;5.90;;;;;;;4.51;72.78;97876.59;5103884;28;20036;-66
2022/02/05 04:00:39;;;;;;;8.60;6.18;;;;;;;4.54;72.23;97877.97;5104593;28;20395;-66
2022/02/05 04:03:06;;;;;;;9.77;6.07;;;;;;;4.55;72.07;97887.72;5104834;28;20027;-66
2022/02/05 04:05:32;;;;;;;9.60;6.20;;;;;;;4.54;72.63;97905.13;5103473;28;20031;-66
2022/02/05 04:07:57;;;;;;;9.93;6.53;;;;;;;4.43;73.11;97920.59;5104650;28;20023;-66
2022/02/05 04:10:31;;;;;;;18.38;8.70;;;;;;;4.23;75.78;97989.22;5104414;28;20056;-66
2022/02/05 04:18:25;;;;;;;4.78;2.13;;;;;;;3.02;78.11;98005.03;5104159;28;20054;-66
2022/02/05 04:20:51;;;;;;;3.30;1.70;;;;;;;2.81;78.61;98006.75;5104700;28;20027;-66
2022/02/05 04:23:17;;;;;;;4.78;2.10;;;;;;;2.66;78.41;98002.81;5103729;28;20036;-66
2022/02/05 04:25:43;;;;;;;3.13;1.50;;;;;;;2.54;80.06;97999.47;5103152;28;20032;-66
2022/02/05 04:28:09;;;;;;;7.45;3.00;;;;;;;2.45;79.92;98009.09;5104276;28;20032;-66
2022/02/05 04:30:35;;;;;;;2.10;1.27;;;;;;;2.36;79.81;98024.97;5104717;28;20026;-66
2022/02/05 04:33:01;;;;;;;4.40;1.55;;;;;;;2.32;81.42;98021.16;5104855;28;20607;-66
2022/02/05 04:35:26;;;;;;;1.90;1.10;;;;;;;2.23;81.77;98024.28;5103399;28;20023;-66
2022/02/05 04:37:57;;;;;;;6.32;2.55;;;;;;;2.17;81.26;98032.59;5102351;28;20599;-66
2022/02/05 04:42:59;;;;;;;4.50;1.88;;;;;;;2.05;80.73;98052.47;5104614;28;21165;-66
2022/02/05 04:58:51;;;;;;;4.47;1.27;;;;;;;1.89;78.87;98083.06;5103259;28;20119;-66
2022/02/05 05:20:00;;;;;;;4.22;1.38;;;;;;;1.53;76.79;98137.44;5101866;28;20047;-66
2022/02/05 05:22:25;;;;;;;7.28;1.73;;;;;;;1.48;76.68;98140.84;5104577;28;20541;-66
2022/02/05 05:24:51;;;;;;;4.40;1.30;;;;;;;1.46;75.96;98144.88;5104159;28;20040;-66
2022/02/05 05:27:16;;;;;;;5.15;1.70;;;;;;;1.44;76.03;98150.50;5083936;28;20042;-66
2022/02/05 05:29:42;;;;;;;4.90;1.58;;;;;;;1.45;75.86;98157.56;5089100;28;20035;-66
2022/02/05 05:32:07;;;;;;;2.45;1.05;;;;;;;1.41;75.43;98151.03;5106946;28;20619;-66
2022/02/05 05:34:33;;;;;;;8.70;3.13;;;;;;;1.38;75.90;98156.91;5107728;28;20031;-66
2022/02/05 05:37:00;;;;;;;7.57;3.80;;;;;;;1.34;75.43;98164.69;5107290;28;20108;-66
2022/02/05 05:39:28;;;;;;;3.95;2.03;;;;;;;1.31;74.93;98165.16;5108238;28;20055;-66
2022/02/05 05:41:53;;;;;;;8.55;3.80;;;;;;;1.31;75.83;98169.75;5108042;28;20419;-66
2022/02/05 05:47:16;;;;;;;10.95;6.53;;;;;;;1.29;75.42;98177.28;5106460;28;20145;-66
2022/02/05 05:50:47;;;;;;;9.02;4.18;;;;;;;1.23;74.84;98184.47;5106412;28;20122;-66
2022/02/05 05:52:30;;;;;;;2.72;1.73;;;;;;;1.21;74.86;98180.38;5096348;28;20039;-66
2022/02/05 05:54:57;;;;;;;7.60;3.50;;;;;;;1.21;75.36;98185.78;5108807;27;20043;-67
2022/02/05 05:57:22;;;;;;;5.95;2.55;;;;;;;1.17;75.19;98190.84;5106524;28;20757;-66
2022/02/05 05:59:48;;;;;;;9.55;4.35;;;;;;;1.15;74.42;98199.19;5106643;28;20039;-66
2022/02/05 06:02:13;;;;;;;5.05;2.40;;;;;;;1.17;74.36;98209.75;5105194;28;20886;-66
2022/02/05 06:04:39;;;;;;;5.35;2.38;;;;;;;1.19;74.06;98216.56;5107033;28;20028;-65
2022/02/05 06:07:05;;;;;;;2.60;1.35;;;;;;;1.18;73.84;98233.00;5105807;28;20031;-66
2022/02/05 06:09:30;;;;;;;2.90;1.70;;;;;;;1.23;74.06;98230.38;5106779;28;20034;-66
2022/02/05 06:11:55;;;;;;;4.80;2.20;;;;;;;1.21;73.60;98229.84;5107667;28;20460;-67
2022/02/05 06:14:25;;;;;;;15.93;3.92;;;;;;;1.25;72.95;98235.56;5107008;28;20042;-66
2022/02/05 06:17:00;;;;;;;13.88;3.47;;;;;;;1.24;73.38;98244.72;5103105;28;20028;-66
2022/02/05 06:19:26;;;;;;;7.82;1.98;;;;;;;1.22;73.32;98247.69;5107362;28;20036;-66
2022/02/05 06:21:51;;;;;;;2.50;1.20;;;;;;;1.27;72.80;98253.16;5107100;28;20039;-67
2022/02/05 06:24:17;;;;;;;4.20;1.98;;;;;;;1.33;73.13;98257.59;5106824;28;20027;-66
2022/02/05 06:26:42;;;;;;;2.60;1.33;;;;;;;1.44;72.87;98264.03;5105277;28;20024;-66
2022/02/05 06:29:08;;;;;;;3.17;1.05;;;;;;;1.53;71.97;98275.28;5106223;28;20036;-66
2022/02/05 06:31:33;;;;;;;5.68;2.22;;;;;;;1.60;71.81;98273.25;5106860;28;20032;-66
2022/02/05 06:33:59;;;;;;;31.10;11.13;;;;;;;1.66;71.95;98279.56;5107150;28;20118;-66
2022/02/05 06:36:24;;;;;;;12.10;3.72;;;;;;;1.68;71.77;98276.63;5104264;28;20039;-66
2022/02/05 06:38:49;;;;;;;4.00;1.50;;;;;;;1.68;70.16;98290.97;5106460;28;20133;-66
2022/02/05 06:41:15;;;;;;;10.00;3.95;;;;;;;1.68;70.41;98293.66;5106379;28;21020;-66
2022/02/05 06:43:41;;;;;;;30.52;8.23;;;;;;;1.69;70.45;98300.72;5105625;28;20047;-67
2022/02/05 06:46:06;;;;;;;8.73;1.90;;;;;;;1.73;69.69;98299.19;5104779;28;20035;-66
2022/02/05 06:48:32;;;;;;;10.55;2.63;;;;;;;1.75;69.61;98305.16;5105410;28;20098;-66
2022/02/05 06:50:57;;;;;;;17.25;5.30;;;;;;;1.83;69.82;98311.25;5105280;28;20027;-66
2022/02/05 06:53:22;;;;;;;18.70;5.35;;;;;;;1.89;68.60;98310.25;5105726;28;20562;-67
2022/02/05 06:55:48;;;;;;;7.75;2.70;;;;;;;1.94;68.85;98313.06;5106619;27;20042;-66
2022/02/05 06:58:13;;;;;;;5.30;1.90;;;;;;;2.00;68.14;98305.88;5104044;27;20084;-68
2022/02/05 07:00:39;;;;;;;9.50;2.05;;;;;;;2.08;67.43;98317.09;5104827;28;20028;-67
2022/02/05 07:03:05;;;;;;;19.30;5.03;;;;;;;2.15;66.81;98316.13;5106246;28;20047;-66
2022/02/05 07:05:30;;;;;;;23.48;7.07;;;;;;;2.20;66.85;98322.44;5103130;28;20019;-66
2022/02/05 07:07:56;;;;;;;27.27;8.15;;;;;;;2.26;65.73;98322.53;5105936;28;20143;-67
2022/02/05 07:10:21;;;;;;;21.58;6.47;;;;;;;2.31;65.03;98328.81;5106222;28;20042;-67
2022/02/05 07:15:23;;;;;;;6.47;2.53;;;;;;;2.44;65.09;98345.81;5104890;28;20672;-68
2022/02/05 07:18:03;;;;;;;8.38;2.90;;;;;;;2.48;63.81;98333.44;5104566;28;20139;-66
2022/02/05 07:20:42;;;;;;;9.73;3.60;;;;;;;2.55;64.32;98349.50;5087451;28;20051;-67
2022/02/05 07:23:31;;;;;;;8.20;3.63;;;;;;;2.59;63.90;98347.94;5104330;28;20031;-67
2022/02/05 07:31:22;;;;;;;4.38;1.88;;;;;;;2.73;63.38;98351.97;5105381;28;20069;-68
2022/02/05 07:33:48;;;;;;;11.05;3.60;;;;;;;2.78;62.52;98360.19;5105569;28;20036;-67
2022/02/05 07:36:16;;;;;;;10.70;3.40;;;;;;;2.80;62.31;98360.75;5103762;28;20379;-67
2022/02/05 07:38:42;;;;;;;12.77;3.45;;;;;;;2.82;61.43;98365.91;5104691;28;20031;-67
2022/02/05 07:41:07;;;;;;;7.32;2.20;;;;;;;2.84;60.36;98361.06;5098477;28;20015;-67
2022/02/05 07:43:34;;;;;;;7.85;1.92;;;;;;;2.86;61.08;98374.34;5105283;28;20034;-66
2022/02/05 07:46:04;;;;;;;6.35;1.30;;;;;;;2.92;61.37;98378.78;5103247;28;20429;-67
2022/02/05 07:48:31;;;;;;;3.65;0.88;;;;;;;2.94;60.55;98388.31;5103797;28;20555;-67
2022/02/05 07:50:56;;;;;;;2.95;1.38;;;;;;;2.99;60.74;98384.84;5100195;28;20039;-67
2022/02/05 07:53:22;;;;;;;3.58;1.17;;;;;;;3.01;60.47;98393.56;5103751;28;20049;-66
2022/02/05 07:55:48;;;;;;;8.23;3.05;;;;;;;3.01;61.30;98398.16;5103353;27;20035;-67
2022/02/05 07:58:14;;;;;;;5.28;1.98;;;;;;;3.00;60.83;98402.75;5102858;28;20464;-68
2022/02/05 08:00:39;;;;;;;7.28;1.67;;;;;;;2.96;60.19;98393.47;5104146;28;20368;-67
2022/02/05 08:03:06;;;;;;;5.45;2.30;;;;;;;2.97;60.51;98404.06;5104041;28;20026;-67
2022/02/05 08:05:32;;;;;;;4.35;1.30;;;;;;;3.02;60.57;98405.22;5100878;28;20403;-67
2022/02/05 08:07:58;;;;;;;7.07;3.10;;;;;;;3.03;60.82;98410.38;5103801;28;20027;-67
2022/02/05 08:10:29;;;;;;;5.78;2.40;;;;;;;3.08;61.68;98413.19;5102383;28;20061;-66
2022/02/05 08:12:57;;;;;;;6.15;3.45;;;;;;;3.12;62.05;98410.78;5103194;28;20063;-66
2022/02/05 08:15:25;;;;;;;5.88;2.25;;;;;;;3.23;61.09;98414.47;5083566;28;20028;-67
2022/02/05 08:17:51;;;;;;;5.43;1.80;;;;;;;3.27;61.39;98416.44;5102291;28;20114;-67
2022/02/05 08:20:16;;;;;;;4.68;1.65;;;;;;;3.33;61.69;98419.22;5102963;28;20031;-67
2022/02/05 08:22:42;;;;;;;3.85;1.50;;;;;;;3.34;61.84;98426.28;5102968;28;20026;-67
2022/02/05 08:25:08;;;;;;;6.90;2.72;;;;;;;3.33;62.27;98421.91;5102816;28;20024;-67
2022/02/05 08:27:35;;;;;;;6.18;2.05;;;;;;;3.37;62.33;98425.78;5102615;28;20027;-67
2022/02/05 08:30:06;;;;;;;6.45;2.30;;;;;;;3.44;61.81;98423.72;5102738;28;20052;-67
2022/02/05 08:32:31;;;;;;;3.97;1.50;;;;;;;3.58;62.42;98432.31;5103460;28;20036;-67
2022/02/05 08:34:59;;;;;;;3.00;1.58;;;;;;;3.61;61.69;98437.22;5084779;28;20035;-67
2022/02/05 08:37:26;;;;;;;5.90;1.63;;;;;;;3.61;61.54;98434.50;5103245;28;20271;-65
2022/02/05 08:39:52;;;;;;;3.65;1.30;;;;;;;3.62;61.07;98436.16;5102685;28;20122;-66
2022/02/05 08:42:17;;;;;;;3.90;1.50;;;;;;;3.66;60.49;98434.59;5103814;28;20244;-67
2022/02/05 08:44:42;;;;;;;1.92;1.00;;;;;;;3.66;59.70;98439.19;5103694;28;20444;-66
2022/02/05 08:47:08;;;;;;;2.60;1.02;;;;;;;3.66;60.87;98444.59;5102372;28;20039;-66
2022/02/05 08:49:34;;;;;;;4.18;1.52;;;;;;;3.64;60.04;98442.16;5102971;28;20027;-66
2022/02/05 08:52:02;;;;;;;3.55;1.20;;;;;;;3.64;59.81;98449.44;5102853;28;20104;-66
2022/02/05 08:54:28;;;;;;;3.33;1.48;;;;;;;3.66;59.30;98442.72;5101602;28;20558;-66
2022/02/05 08:56:54;;;;;;;6.25;2.40;;;;;;;3.69;59.21;98447.63;5102264;28;20035;-66
2022/02/05 08:59:21;;;;;;;4.95;1.85;;;;;;;3.75;59.71;98451.22;5101714;28;20031;-66
2022/02/05 09:07:01;;;;;;;4.35;1.65;;;;;;;3.81;57.69;98433.94;5066861;28;20028;-66
2022/02/05 09:12:03;;;;;;;3.33;1.80;;;;;;;3.91;59.46;98427.81;5106736;28;20043;-65
2022/02/05 09:16:55;;;;;;;9.13;2.67;;;;;;;4.07;59.03;98434.25;5105472;27;20894;-65
2022/02/05 09:19:21;;;;;;;4.85;2.55;;;;;;;4.16;58.14;98437.31;5105842;28;20031;-66
2022/02/05 09:21:46;;;;;;;6.80;2.30;;;;;;;4.28;57.00;98434.47;5087454;28;20055;-67
2022/02/05 09:24:12;;;;;;;6.80;2.15;;;;;;;4.35;57.40;98434.28;5107021;28;20027;-68
2022/02/05 09:26:43;;;;;;;6.80;2.38;;;;;;;4.52;56.83;98434.16;5105870;28;20047;-68
2022/02/05 09:29:14;;;;;;;4.30;1.90;;;;;;;4.61;57.05;98429.91;5106317;27;20633;-68
2022/02/05 09:31:39;;;;;;;4.85;1.83;;;;;;;4.73;56.00;98437.88;5103694;28;20467;-68
2022/02/05 09:34:06;;;;;;;6.90;3.10;;;;;;;4.74;55.66;98429.47;5107870;28;20024;-68
2022/02/05 09:36:32;;;;;;;4.40;1.85;;;;;;;4.79;53.78;98428.69;5105255;28;20046;-69
2022/02/05 09:38:58;;;;;;;5.10;1.60;;;;;;;4.82;55.83;98438.22;5106600;28;20557;-69
2022/02/05 09:41:24;;;;;;;7.43;2.50;;;;;;;4.95;55.63;98442.41;5106956;28;20522;-68
2022/02/05 09:43:50;;;;;;;7.72;2.40;;;;;;;5.03;55.07;98442.75;5104825;27;20485;-68
2022/02/05 09:46:18;;;;;;;6.30;1.80;;;;;;;4.96;53.56;98436.72;5108596;27;20106;-69
2022/02/05 09:48:46;;;;;;;6.70;2.50;;;;;;;4.82;53.07;98438.22;5106441;28;20035;-67
2022/02/05 09:51:19;;;;;;;6.70;2.50;;;;;;;4.85;53.99;98435.00;5106820;27;20026;-68
2022/02/05 09:53:48;;;;;;;6.50;2.75;;;;;;;5.02;53.81;98430.25;5106647;28;20036;-70
2022/02/05 09:56:14;;;;;;;5.40;2.05;;;;;;;5.16;53.61;98435.22;5105744;28;20072;-69
2022/02/05 09:58:39;;;;;;;7.28;2.80;;;;;;;5.27;52.52;98438.84;5106086;27;20035;-69
2022/02/05 10:01:11;;;;;;;5.82;1.80;;;;;;;5.32;53.11;98439.69;5106433;27;20467;-69
2022/02/05 10:03:37;;;;;;;5.65;1.90;;;;;;;5.36;54.23;98440.81;5104565;28;20027;-69
2022/02/05 10:06:09;;;;;;;10.15;3.10;;;;;;;5.33;53.12;98435.06;5106467;27;20027;-69
2022/02/05 10:08:38;;;;;;;4.50;1.90;;;;;;;5.28;52.21;98435.84;5106835;28;20019;-69
2022/02/05 10:11:04;;;;;;;8.88;3.65;;;;;;;5.22;53.20;98445.88;5106860;28;20124;-68
2022/02/05 10:13:31;;;;;;;10.20;3.28;;;;;;;5.18;52.95;98444.75;5106586;28;20032;-68
2022/02/05 10:15:57;;;;;;;12.27;3.95;;;;;;;5.10;53.33;98455.28;5086278;28;20027;-68
2022/02/05 10:18:33;;;;;;;20.98;6.40;;;;;;;4.97;52.12;98456.53;5087197;28;20502;-68
2022/02/05 10:21:00;;;;;;;17.92;4.95;;;;;;;4.89;51.95;98458.66;5106647;28;20032;-67
2022/02/05 10:23:27;;;;;;;18.08;5.93;;;;;;;4.81;52.29;98455.59;5106363;28;20097;-67
2022/02/05 10:25:54;;;;;;;19.75;7.55;;;;;;;4.73;51.97;98459.63;5104374;28;20035;-68
2022/02/05 10:28:20;;;;;;;6.30;2.80;;;;;;;4.68;52.76;98459.56;5105679;28;20035;-67
2022/02/05 10:30:50;;;;;;;9.98;3.83;;;;;;;4.58;53.45;98461.09;5105448;28;20034;-67
2022/02/05 10:33:31;;;;;;;10.93;4.13;;;;;;;4.55;53.99;98471.69;5104923;28;20034;-67
2022/02/05 10:43:58;;;;;;;11.88;4.65;;;;;;;4.54;55.08;98470.84;5105221;28;20134;-65
2022/02/05 10:46:35;;;;;;;8.43;3.08;;;;;;;4.52;54.83;98464.84;5102824;28;20032;-65
2022/02/05 10:49:01;;;;;;;11.40;3.78;;;;;;;4.45;55.17;98467.78;5105536;28;20138;-66
2022/02/05 10:51:41;;;;;;;8.20;3.00;;;;;;;4.45;54.97;98466.97;5104573;28;20552;-65
2022/02/05 10:54:15;;;;;;;16.10;7.18;;;;;;;4.44;54.59;98466.13;5105384;27;20100;-65
2022/02/05 10:56:57;;;;;;;7.68;2.53;;;;;;;4.42;54.31;98473.72;5100340;28;20042;-65
2022/02/05 10:59:50;;;;;;;5.90;2.05;;;;;;;4.36;54.64;98476.63;5104587;27;20032;-66
2022/02/05 11:05:17;;;;;;;9.18;2.78;;;;;;;4.48;55.09;98461.03;5090640;28;20829;-67
2022/02/05 11:07:43;;;;;;;8.18;2.40;;;;;;;4.52;55.35;98459.41;5076893;28;20064;-67
2022/02/05 11:10:29;;;;;;;5.38;2.65;;;;;;;4.59;55.42;98464.66;5079646;28;20031;-67
2022/02/05 11:20:55;;;;;;;7.70;2.40;;;;;;;4.97;54.72;98462.81;5082731;28;20232;-68
2022/02/05 11:23:21;;;;;;;7.20;3.22;;;;;;;5.12;55.50;98456.69;5082874;28;20562;-66
2022/02/05 11:25:48;;;;;;;7.85;3.60;;;;;;;5.26;55.48;98464.41;5079586;28;20060;-66
2022/02/05 11:28:13;;;;;;;5.95;2.85;;;;;;;5.28;55.02;98465.75;5076065;28;20024;-67
2022/02/05 11:30:43;;;;;;;8.88;3.10;;;;;;;5.32;55.92;98466.88;5075800;28;20717;-67
2022/02/05 11:33:23;;;;;;;9.98;3.80;;;;;;;5.41;56.02;98474.56;5062627;28;20659;-67
2022/02/05 11:38:30;;;;;;;8.27;3.55;;;;;;;5.40;54.52;98479.16;5084798;28;21377;-67
2022/02/05 11:40:56;;;;;;;6.63;2.40;;;;;;;5.40;54.43;98473.72;5072552;28;20027;-67
2022/02/05 11:43:23;;;;;;;7.88;2.72;;;;;;;5.38;52.74;98475.06;5083900;28;20510;-66
2022/02/05 11:46:18;;;;;;;3.10;1.50;;;;;;;5.39;52.43;98476.72;5072299;28;20506;-67
2022/02/05 11:48:49;;;;;;;2.95;1.40;;;;;;;5.34;50.65;98480.19;5073675;28;20141;-66
2022/02/05 11:51:22;;;;;;;5.55;2.38;;;;;;;5.31;50.35;98470.69;5073979;28;20491;-67
2022/02/05 11:53:59;;;;;;;3.53;1.70;;;;;;;5.26;50.67;98473.38;5083761;28;20058;-66
2022/02/05 11:56:37;;;;;;;3.08;1.45;;;;;;;5.20;50.90;98468.97;5067018;28;21563;-66
2022/02/05 11:59:02;;;;;;;3.88;1.55;;;;;;;5.18;51.01;98477.41;5064475;28;20040;-67
2022/02/05 12:01:34;;;;;;;7.65;2.38;;;;;;;5.12;50.45;98483.03;5082423;28;20706;-67
2022/02/05 12:04:21;;;;;;;3.78;1.73;;;;;;;5.01;50.75;98474.81;5083624;28;20110;-67
2022/02/05 12:06:53;;;;;;;5.53;1.90;;;;;;;4.98;51.92;98480.78;5083719;28;20036;-67
2022/02/05 12:09:38;;;;;;;6.80;2.88;;;;;;;4.95;50.72;98484.00;5076666;28;20042;-68
2022/02/05 12:12:23;;;;;;;41.40;16.35;;;;;;;4.96;50.80;98484.81;5056270;28;20036;-67
2022/02/05 12:15:27;;;;;;;8.15;2.75;;;;;;;5.09;51.85;98483.56;5081337;28;20154;-67
2022/02/05 12:20:33;;;;;;;4.60;2.50;;;;;;;5.25;51.48;98474.44;5029621;28;20106;-66
2022/02/05 12:25:59;;;;;;;5.35;2.00;;;;;;;5.28;52.03;98482.06;5081884;28;20054;-65
2022/02/05 12:28:37;;;;;;;3.03;1.60;;;;;;;5.24;51.63;98483.69;5080690;28;20065;-66
2022/02/05 12:31:25;;;;;;;6.40;2.10;;;;;;;5.17;52.29;98478.47;5076127;28;20098;-65
2022/02/05 12:34:00;;;;;;;5.60;2.50;;;;;;;5.09;52.54;98478.13;5075106;28;20548;-66
2022/02/05 12:36:42;;;;;;;11.32;3.97;;;;;;;4.98;52.80;98482.66;5069770;28;20036;-65
2022/02/05 12:39:11;;;;;;;6.50;2.15;;;;;;;4.95;52.67;98489.44;5081462;28;20032;-65
2022/02/05 12:41:38;;;;;;;5.85;2.78;;;;;;;4.89;53.25;98483.13;5083106;28;20495;-65
2022/02/05 12:44:06;;;;;;;9.63;3.92;;;;;;;4.85;53.19;98486.63;5081216;28;20782;-65
2022/02/05 12:46:39;;;;;;;13.57;5.72;;;;;;;4.83;54.20;98486.06;5069763;28;20032;-64
2022/02/05 12:49:13;;;;;;;7.82;3.20;;;;;;;4.81;54.01;98493.66;5085054;28;20028;-65
2022/02/05 12:51:42;;;;;;;14.75;5.55;;;;;;;4.82;54.11;98484.41;5062973;28;20107;-65
2022/02/05 12:54:24;;;;;;;10.20;4.28;;;;;;;4.80;54.05;98483.84;5074984;28;20116;-65
2022/02/05 12:56:50;;;;;;;13.82;4.93;;;;;;;4.76;53.39;98481.66;5082865;28;20028;-65
2022/02/05 12:59:25;;;;;;;11.77;4.05;;;;;;;4.72;53.62;98474.28;5085011;28;20115;-65
2022/02/05 13:01:52;;;;;;;12.93;5.03;;;;;;;4.70;53.43;98473.72;5085500;28;20255;-65
2022/02/05 13:04:29;;;;;;;9.20;3.80;;;;;;;4.67;53.71;98474.22;5076206;28;20042;-64
2022/02/05 13:07:01;;;;;;;11.82;4.63;;;;;;;4.71;54.04;98468.00;5083554;28;20046;-65
2022/02/05 13:09:30;;;;;;;7.18;3.05;;;;;;;4.73;53.66;98473.19;5076360;28;20047;-65
2022/02/05 13:12:07;;;;;;;12.40;4.65;;;;;;;4.71;53.75;98476.16;5078074;28;20595;-64
2022/02/05 13:14:38;;;;;;;16.50;6.03;;;;;;;4.66;53.47;98472.59;5075860;28;20066;-65
2022/02/05 13:17:09;;;;;;;13.27;5.35;;;;;;;4.66;54.47;98465.28;5079448;28;20670;-65
2022/02/05 13:20:05;;;;;;;14.82;5.18;;;;;;;4.71;54.17;98476.16;5084781;28;20024;-65
2022/02/05 13:35:59;;;;;;;16.15;5.60;;;;;;;4.62;55.53;98475.00;5073818;28;20069;-65
2022/02/05 13:38:25;;;;;;;15.25;5.40;;;;;;;4.56;55.99;98476.03;5064062;28;20048;-66
2022/02/05 13:41:06;;;;;;;25.85;9.18;;;;;;;4.57;55.56;98480.38;5082961;28;20024;-66
2022/02/05 13:43:43;;;;;;;14.90;5.53;;;;;;;4.57;55.91;98475.75;5084282;28;20048;-66
2022/02/05 13:46:20;;;;;;;21.85;8.07;;;;;;;4.55;55.57;98483.34;5083647;28;20024;-66
2022/02/05 13:48:45;;;;;;;24.23;9.45;;;;;;;4.53;55.80;98484.69;5083755;28;20044;-67
2022/02/05 13:51:11;;;;;;;21.45;7.47;;;;;;;4.50;55.84;98486.00;5086390;28;20474;-66
2022/02/05 13:53:52;;;;;;;22.70;9.30;;;;;;;4.47;56.14;98495.50;5079547;28;20788;-67
2022/02/05 13:56:19;;;;;;;18.02;7.30;;;;;;;4.51;56.09;98509.38;5074382;28;20028;-68
2022/02/05 13:58:45;;;;;;;10.10;3.70;;;;;;;4.44;55.42;98523.16;5080344;28;20038;-68
2022/02/05 14:01:28;;;;;;;4.75;2.88;;;;;;;4.30;55.85;98528.16;5085183;28;20031;-68
2022/02/05 14:03:55;;;;;;;9.32;3.88;;;;;;;4.23;56.20;98541.09;5064495;28;20114;-69
2022/02/05 14:06:20;;;;;;;7.60;3.92;;;;;;;4.15;56.50;98545.09;5082326;28;20102;-68
2022/02/05 14:08:48;;;;;;;10.05;6.72;;;;;;;4.01;57.84;98547.34;5086046;28;20883;-68
2022/02/05 14:11:16;;;;;;;8.02;4.60;;;;;;;3.78;59.67;98534.84;5083508;28;20089;-68
2022/02/05 14:13:42;;;;;;;6.55;3.40;;;;;;;3.56;60.65;98551.06;5081925;27;20024;-68
2022/02/05 14:16:09;;;;;;;9.82;5.38;;;;;;;3.35;61.45;98582.44;5076050;28;20016;-68
2022/02/05 14:18:49;;;;;;;6.75;3.20;;;;;;;3.00;65.57;98600.53;5076349;28;20053;-68
2022/02/05 14:21:15;;;;;;;12.38;6.75;;;;;;;2.75;66.14;98622.53;5085477;28;20039;-69
2022/02/05 14:23:54;;;;;;;9.55;4.97;;;;;;;2.38;69.72;98599.38;5073966;28;20035;-74
2022/02/05 14:26:35;;;;;;;5.15;3.00;;;;;;;2.07;71.71;98588.72;5071706;28;20024;-70
2022/02/05 14:29:03;;;;;;;11.32;7.00;;;;;;;1.94;70.39;98588.94;5085422;28;20024;-68
2022/02/05 14:31:45;;;;;;;22.60;14.18;;;;;;;1.81;70.15;98592.72;5083762;28;20494;-69
2022/02/05 14:40:18;;;;;;;20.23;12.75;;;;;;;1.65;70.95;98588.84;5073953;28;20036;-67
2022/02/05 14:42:23;;;;;;;24.65;12.38;;;;;;;1.66;71.60;98593.19;5084690;28;20145;-68
2022/02/05 14:44:50;;;;;;;24.92;15.00;;;;;;;1.60;72.38;98588.72;5083539;28;20079;-68
2022/02/05 14:47:16;;;;;;;25.05;14.70;;;;;;;1.58;72.05;98590.84;5071183;28;20036;-69
2022/02/05 14:49:42;;;;;;;22.13;10.25;;;;;;;1.55;71.42;98594.84;5084351;27;20065;-71
2022/02/05 14:52:13;;;;;;;43.83;18.25;;;;;;;1.59;72.36;98608.69;5085298;27;20108;-70
2022/02/05 14:54:39;;;;;;;12.77;6.05;;;;;;;1.58;75.09;98658.41;5085113;27;20441;-71
2022/02/05 14:57:05;;;;;;;8.70;5.40;;;;;;;1.47;74.83;98650.03;5075748;28;20039;-70
2022/02/05 14:59:30;;;;;;;9.70;4.57;;;;;;;1.41;76.02;98663.66;5075756;28;20035;-70
2022/02/05 15:01:56;;;;;;;8.75;5.40;;;;;;;1.24;76.42;98668.91;5079596;28;20567;-70
2022/02/05 15:04:21;;;;;;;5.82;2.70;;;;;;;1.09;76.85;98674.75;5064098;28;20123;-70
2022/02/05 15:06:47;;;;;;;6.40;3.08;;;;;;;0.91;77.19;98691.81;5069563;28;20176;-69